Time;durP1;ratioP1;P1;durP2;ratioP2;P2;SDS_P1;SDS_P2;PMS_P1;PMS_P2;Temp;Humidity;BMP_temperature;BMP_pressure;BME280_temperature;BME280_humidity;BME280_pressure;Samples;Min_cycle;Max_cycle;Signal;HPM_P1;HPM_P2
2023/08/12 00:00:54;;;;;;;4.75;4.25;;;21.00;75.40;;;;;;5004281;28;20120;-65
2023/08/12 00:03:19;;;;;;;5.25;4.75;;;21.00;75.50;;;;;;5007782;28;20493;-65
2023/08/12 00:05:45;;;;;;;5.20;4.32;;;21.00;75.40;;;;;;5011163;28;20429;-64
2023/08/12 00:08:11;;;;;;;6.45;4.25;;;20.90;75.50;;;;;;5009007;28;20070;-64
2023/08/12 00:10:37;;;;;;;7.03;4.20;;;20.90;75.60;;;;;;5009101;28;20119;-64
2023/08/12 00:13:03;;;;;;;6.72;4.57;;;20.80;75.60;;;;;;5011353;28;20038;-64
2023/08/12 00:15:29;;;;;;;6.80;5.07;;;20.80;75.80;;;;;;5015084;28;20248;-64
2023/08/12 00:17:54;;;;;;;9.60;4.93;;;20.80;75.90;;;;;;5015111;28;20042;-64
2023/08/12 00:20:20;;;;;;;7.63;4.57;;;20.80;76.00;;;;;;5019580;28;20275;-64
2023/08/12 00:22:45;;;;;;;6.25;4.40;;;20.70;76.00;;;;;;5019397;28;20048;-64
2023/08/12 00:25:11;;;;;;;7.47;4.90;;;20.70;76.20;;;;;;5011967;28;20053;-65
2023/08/12 00:27:37;;;;;;;6.32;5.07;;;20.60;76.20;;;;;;5009691;28;20066;-64
2023/08/12 00:30:04;;;;;;;5.70;4.50;;;20.60;76.50;;;;;;5009473;28;20099;-64
2023/08/12 00:32:30;;;;;;;4.78;4.30;;;20.50;76.60;;;;;;5008303;28;20477;-65
2023/08/12 00:34:55;;;;;;;8.50;4.63;;;20.50;76.80;;;;;;5014853;28;20040;-65
2023/08/12 00:37:22;;;;;;;7.53;5.38;;;20.50;77.00;;;;;;5011078;28;20037;-65
2023/08/12 00:39:48;;;;;;;9.57;5.70;;;20.50;77.30;;;;;;5013091;28;20357;-64
2023/08/12 00:42:13;;;;;;;7.32;5.45;;;20.40;77.30;;;;;;5006651;28;20037;-65
2023/08/12 00:44:39;;;;;;;5.90;5.32;;;20.40;77.50;;;;;;5010048;28;20077;-64
2023/08/12 00:47:05;;;;;;;7.88;5.00;;;20.40;77.60;;;;;;4993318;28;20034;-65
2023/08/12 00:49:32;;;;;;;5.32;4.82;;;20.30;77.70;;;;;;5010415;28;20044;-63
2023/08/12 00:51:58;;;;;;;5.30;4.38;;;20.30;78.70;;;;;;5013802;28;20034;-64
2023/08/12 00:54:26;;;;;;;5.50;4.88;;;20.20;77.90;;;;;;5012175;28;20413;-64
2023/08/12 00:56:53;;;;;;;5.50;4.60;;;20.20;78.20;;;;;;5010410;28;20395;-64
2023/08/12 00:59:21;;;;;;;6.70;4.75;;;20.10;78.20;;;;;;5007643;28;20042;-64
2023/08/12 01:01:47;;;;;;;5.70;5.00;;;20.10;78.50;;;;;;5003750;28;20034;-64
2023/08/12 01:04:13;;;;;;;7.65;5.28;;;20.00;78.40;;;;;;5010199;28;20098;-64
2023/08/12 01:06:39;;;;;;;7.13;5.18;;;20.00;78.60;;;;;;5009546;28;20037;-64
2023/08/12 01:09:07;;;;;;;5.20;4.70;;;20.00;78.70;;;;;;5007639;28;20371;-64
2023/08/12 01:11:54;;;;;;;5.05;4.63;;;20.00;78.70;;;;;;5009392;28;20441;-65
2023/08/12 01:14:34;;;;;;;6.20;4.97;;;20.00;79.10;;;;;;5013919;28;20117;-64
2023/08/12 01:17:03;;;;;;;7.22;4.68;;;19.90;79.30;;;;;;5015039;28;20038;-64
2023/08/12 01:19:38;;;;;;;5.57;4.82;;;19.90;78.60;;;;;;5015635;28;20405;-64
2023/08/12 01:22:09;;;;;;;5.05;4.50;;;19.90;79.10;;;;;;5015502;28;20030;-64
2023/08/12 01:24:39;;;;;;;5.22;4.43;;;19.90;78.70;;;;;;5012927;28;20164;-64
2023/08/12 01:27:06;;;;;;;6.65;4.75;;;19.90;78.50;;;;;;5011143;28;20040;-64
2023/08/12 01:29:37;;;;;;;5.47;4.20;;;20.00;78.80;;;;;;5011772;28;20042;-64
2023/08/12 01:32:34;;;;;;;5.32;4.43;;;19.80;78.70;;;;;;5006194;28;20026;-64
2023/08/12 01:35:29;;;;;;;5.63;4.65;;;19.90;79.80;;;;;;5011239;28;20029;-64
2023/08/12 01:37:57;;;;;;;4.78;4.32;;;19.80;79.20;;;;;;5011565;28;20443;-64
2023/08/12 01:40:24;;;;;;;5.13;3.67;;;19.80;78.60;;;;;;5008416;28;20038;-64
2023/08/12 01:42:51;;;;;;;4.93;4.18;;;19.70;78.70;;;;;;5008844;28;20033;-65
2023/08/12 01:45:18;;;;;;;5.32;4.10;;;19.70;79.00;;;;;;5008807;28;20326;-64
2023/08/12 01:47:44;;;;;;;4.70;4.10;;;19.70;79.30;;;;;;5008226;28;20040;-64
2023/08/12 01:50:10;;;;;;;9.30;4.22;;;19.70;79.40;;;;;;5011827;28;20041;-64
2023/08/12 01:52:36;;;;;;;6.60;4.38;;;19.60;79.40;;;;;;5010375;28;20060;-64
2023/08/12 01:55:02;;;;;;;6.20;4.30;;;19.60;79.40;;;;;;5011628;28;20506;-63
2023/08/12 01:57:27;;;;;;;4.50;4.10;;;19.60;79.60;;;;;;5008343;28;20105;-65
2023/08/12 01:59:53;;;;;;;5.30;4.43;;;19.60;79.70;;;;;;5005947;28;20038;-64
2023/08/12 02:02:18;;;;;;;5.90;4.50;;;19.50;79.60;;;;;;5008443;28;20069;-64
2023/08/12 02:04:44;;;;;;;6.90;4.20;;;19.50;79.70;;;;;;5005992;28;20065;-64
2023/08/12 02:07:10;;;;;;;6.50;4.20;;;19.50;80.00;;;;;;5007858;28;20044;-65
2023/08/12 02:09:35;;;;;;;6.03;3.85;;;19.40;80.10;;;;;;5005115;28;20042;-64
2023/08/12 02:12:01;;;;;;;4.20;3.80;;;19.40;80.30;;;;;;5003932;28;20077;-64
2023/08/12 02:14:26;;;;;;;7.15;4.03;;;19.40;80.30;;;;;;5012325;28;20042;-64
2023/08/12 02:16:52;;;;;;;4.78;3.90;;;19.40;80.20;;;;;;5012931;28;20049;-65
2023/08/12 02:19:17;;;;;;;4.70;4.20;;;19.40;80.40;;;;;;5011229;28;20038;-64
2023/08/12 02:21:44;;;;;;;7.47;4.40;;;19.40;80.50;;;;;;5015658;28;20029;-65
2023/08/12 02:24:09;;;;;;;5.88;4.00;;;19.40;80.50;;;;;;5012304;28;20674;-63
2023/08/12 02:26:35;;;;;;;4.78;4.35;;;19.40;80.50;;;;;;5011424;28;20026;-65
2023/08/12 02:29:01;;;;;;;5.20;4.38;;;19.40;80.60;;;;;;5011884;28;20026;-64
2023/08/12 02:31:26;;;;;;;5.57;4.40;;;19.30;80.60;;;;;;5009447;28;20042;-64
2023/08/12 02:33:52;;;;;;;7.30;4.43;;;19.30;81.60;;;;;;5004983;28;20030;-65
2023/08/12 02:36:17;;;;;;;4.82;4.20;;;19.30;80.80;;;;;;5011079;28;20069;-65
2023/08/12 02:38:43;;;;;;;4.60;3.80;;;19.30;81.00;;;;;;5011055;28;20070;-64
2023/08/12 02:41:09;;;;;;;5.03;4.53;;;19.30;81.20;;;;;;5008111;28;20026;-64
2023/08/12 02:43:35;;;;;;;4.30;3.83;;;19.30;81.00;;;;;;5010947;28;20041;-64
2023/08/12 02:46:00;;;;;;;4.22;3.90;;;19.30;81.10;;;;;;5009151;28;20030;-65
2023/08/12 02:48:26;;;;;;;5.10;3.83;;;19.30;81.00;;;;;;5007043;28;20048;-64
2023/08/12 02:50:52;;;;;;;4.22;3.83;;;19.30;81.20;;;;;;5009924;28;20041;-65
2023/08/12 02:53:17;;;;;;;4.70;4.20;;;19.30;81.10;;;;;;5006875;28;20092;-64
2023/08/12 02:55:45;;;;;;;5.45;4.00;;;19.30;81.70;;;;;;5013938;28;20049;-62
2023/08/12 02:58:10;;;;;;;6.25;4.00;;;19.30;81.20;;;;;;5006716;28;20150;-62
2023/08/12 03:00:36;;;;;;;5.82;4.13;;;19.30;81.10;;;;;;5004950;28;20042;-63
2023/08/12 03:03:02;;;;;;;6.47;3.90;;;19.40;80.90;;;;;;5009233;28;20037;-64
2023/08/12 03:05:27;;;;;;;6.13;3.97;;;19.30;80.90;;;;;;5007623;28;20045;-64
2023/08/12 03:07:53;;;;;;;5.38;3.92;;;19.40;80.90;;;;;;5006176;28;20516;-64
2023/08/12 03:10:19;;;;;;;4.32;3.92;;;19.30;80.70;;;;;;5006717;28;20045;-63
2023/08/12 03:12:44;;;;;;;6.43;4.20;;;19.30;81.00;;;;;;5008188;28;20033;-63
2023/08/12 03:15:10;;;;;;;5.05;4.00;;;19.30;81.20;;;;;;5005739;28;20037;-65
2023/08/12 03:17:38;;;;;;;4.28;3.83;;;19.30;81.30;;;;;;5012238;28;20042;-61
2023/08/12 03:20:05;;;;;;;6.63;4.40;;;19.20;81.40;;;;;;5012427;28;20029;-64
2023/08/12 03:22:31;;;;;;;5.13;4.63;;;19.20;81.70;;;;;;5007881;28;20116;-65
2023/08/12 03:24:56;;;;;;;10.38;5.10;;;19.20;82.00;;;;;;5007864;28;20045;-64
2023/08/12 03:27:22;;;;;;;8.65;4.78;;;19.20;82.20;;;;;;5013317;28;20099;-64
2023/08/12 03:29:48;;;;;;;4.90;4.40;;;19.10;82.10;;;;;;5014004;28;20041;-64
2023/08/12 03:32:13;;;;;;;5.25;4.65;;;19.10;82.20;;;;;;5012203;28;20203;-64
2023/08/12 03:34:39;;;;;;;4.10;3.78;;;19.10;82.40;;;;;;5013230;28;20448;-64
2023/08/12 03:37:05;;;;;;;4.72;4.32;;;19.10;82.20;;;;;;5013018;28;20052;-64
2023/08/12 03:39:30;;;;;;;4.50;4.13;;;19.20;82.40;;;;;;5013142;28;20038;-62
2023/08/12 03:41:56;;;;;;;4.97;4.18;;;19.20;82.40;;;;;;5008895;28;20042;-64
2023/08/12 03:44:22;;;;;;;4.40;4.03;;;19.20;82.30;;;;;;5010504;28;20045;-62
2023/08/12 03:46:47;;;;;;;6.07;4.32;;;19.30;82.40;;;;;;5008654;28;20049;-65
2023/08/12 03:49:13;;;;;;;6.82;3.90;;;19.30;82.40;;;;;;5008309;28;20375;-63
2023/08/12 03:51:38;;;;;;;9.85;4.18;;;19.30;82.30;;;;;;5008705;28;20112;-64
2023/08/12 03:54:04;;;;;;;4.72;4.03;;;19.30;82.20;;;;;;5009507;28;20042;-63
2023/08/12 03:56:30;;;;;;;6.10;4.20;;;19.40;82.20;;;;;;5007546;28;20412;-64
2023/08/12 03:58:56;;;;;;;5.80;4.25;;;19.40;82.00;;;;;;5008852;28;20271;-62
2023/08/12 04:01:22;;;;;;;5.50;4.20;;;19.40;82.10;;;;;;5005058;28;20045;-64
2023/08/12 04:03:48;;;;;;;4.80;4.38;;;19.50;82.00;;;;;;5006435;28;20418;-64
2023/08/12 04:06:13;;;;;;;6.60;4.40;;;19.50;81.90;;;;;;5004761;28;20125;-64
2023/08/12 04:08:39;;;;;;;4.78;4.32;;;19.50;81.90;;;;;;5005212;28;20038;-64
2023/08/12 04:11:05;;;;;;;5.00;4.47;;;19.50;81.90;;;;;;5001600;28;20033;-64
2023/08/12 04:13:30;;;;;;;4.95;4.18;;;19.50;81.90;;;;;;5002027;28;20034;-64
2023/08/12 04:15:56;;;;;;;4.47;4.07;;;19.50;81.90;;;;;;5011166;28;20108;-64
2023/08/12 04:18:22;;;;;;;5.35;4.45;;;19.50;81.90;;;;;;5006589;28;20045;-64
2023/08/12 04:20:49;;;;;;;5.55;4.75;;;19.50;81.90;;;;;;5010100;28;20038;-63
2023/08/12 04:23:15;;;;;;;7.88;4.28;;;19.50;82.10;;;;;;5004612;28;20034;-63
2023/08/12 04:25:45;;;;;;;5.00;4.50;;;19.50;82.00;;;;;;5009080;28;20044;-64
2023/08/12 04:28:11;;;;;;;6.53;4.50;;;19.50;82.20;;;;;;5007328;28;20044;-63
2023/08/12 04:30:41;;;;;;;6.70;4.90;;;19.60;82.10;;;;;;4990202;28;20057;-64
2023/08/12 04:33:07;;;;;;;5.85;4.75;;;19.60;82.40;;;;;;5005027;28;20045;-64
2023/08/12 04:35:32;;;;;;;7.57;4.85;;;19.60;82.20;;;;;;5006469;28;20034;-62
2023/08/12 04:37:58;;;;;;;6.35;5.45;;;19.70;82.30;;;;;;5008293;28;20038;-63
2023/08/12 04:40:23;;;;;;;5.30;4.70;;;19.70;82.30;;;;;;5006534;28;20034;-64
2023/08/12 04:42:49;;;;;;;6.90;5.57;;;19.70;82.30;;;;;;5005617;28;20047;-63
2023/08/12 04:45:14;;;;;;;5.68;4.57;;;19.70;82.40;;;;;;5005949;28;20149;-63
2023/08/12 04:47:40;;;;;;;5.90;5.30;;;19.80;82.50;;;;;;5004151;28;20558;-63
2023/08/12 04:50:06;;;;;;;5.40;4.90;;;19.80;82.40;;;;;;5003703;28;20048;-63
2023/08/12 04:52:32;;;;;;;7.40;5.22;;;19.80;82.10;;;;;;5005373;28;20528;-64
2023/08/12 04:54:57;;;;;;;6.90;5.15;;;19.90;82.20;;;;;;5005018;28;20418;-64
2023/08/12 04:57:23;;;;;;;6.07;5.40;;;19.90;82.30;;;;;;5003786;28;20042;-64
2023/08/12 04:59:48;;;;;;;7.78;5.20;;;19.90;82.20;;;;;;5011029;28;20037;-64
2023/08/12 05:02:14;;;;;;;6.57;5.18;;;19.90;82.20;;;;;;5010644;28;20034;-64
2023/08/12 05:04:40;;;;;;;8.40;5.30;;;20.00;82.20;;;;;;5012131;28;20036;-64
2023/08/12 05:07:06;;;;;;;5.80;4.75;;;20.00;82.20;;;;;;5008612;28;20158;-64
2023/08/12 05:09:31;;;;;;;7.63;4.88;;;20.00;82.20;;;;;;5009573;28;20022;-64
2023/08/12 05:11:57;;;;;;;7.90;5.00;;;20.00;82.20;;;;;;5009012;28;20038;-64
2023/08/12 05:14:22;;;;;;;7.78;4.93;;;20.10;82.30;;;;;;5012314;28;20148;-65
2023/08/12 05:16:48;;;;;;;6.13;5.28;;;20.10;82.20;;;;;;4996222;28;20118;-64
2023/08/12 05:19:13;;;;;;;6.55;5.13;;;20.20;82.20;;;;;;5011072;28;20409;-65
2023/08/12 05:21:39;;;;;;;6.85;5.10;;;20.20;82.20;;;;;;5013670;28;20034;-64
2023/08/12 05:24:06;;;;;;;7.05;5.10;;;20.20;82.20;;;;;;5007603;28;20093;-65
2023/08/12 05:26:33;;;;;;;5.90;5.00;;;20.30;82.50;;;;;;5011679;28;20050;-64
2023/08/12 05:28:59;;;;;;;6.85;5.50;;;20.30;82.70;;;;;;5015244;28;20030;-65
2023/08/12 05:31:24;;;;;;;8.20;5.43;;;20.30;82.50;;;;;;5015500;28;20040;-64
2023/08/12 05:33:51;;;;;;;5.88;5.28;;;20.30;82.40;;;;;;5013963;28;20033;-63
2023/08/12 05:36:16;;;;;;;8.68;5.30;;;20.30;82.60;;;;;;5014367;28;20038;-63
2023/08/12 05:38:42;;;;;;;5.95;5.40;;;20.40;82.90;;;;;;5010804;28;20075;-64
2023/08/12 05:41:08;;;;;;;6.25;5.07;;;20.40;83.20;;;;;;5007502;28;20068;-64
2023/08/12 05:43:33;;;;;;;5.30;4.80;;;20.40;83.30;;;;;;5012602;28;20087;-64
2023/08/12 05:45:59;;;;;;;6.40;5.47;;;20.40;83.30;;;;;;5010360;28;20034;-64
2023/08/12 05:48:25;;;;;;;6.43;5.82;;;20.50;83.50;;;;;;5012130;28;20045;-64
2023/08/12 05:50:50;;;;;;;10.20;5.88;;;20.50;83.80;;;;;;5006958;28;20052;-64
2023/08/12 05:53:16;;;;;;;7.43;6.60;;;20.50;83.70;;;;;;5011969;28;20551;-64
2023/08/12 05:55:41;;;;;;;7.88;6.60;;;20.60;83.80;;;;;;5006827;28;20797;-64
2023/08/12 05:58:07;;;;;;;9.98;6.78;;;20.60;83.80;;;;;;5010986;28;20037;-64
2023/08/12 06:00:33;;;;;;;9.05;6.75;;;20.70;83.90;;;;;;5007468;28;20034;-64
2023/08/12 06:02:58;;;;;;;11.35;6.43;;;20.70;84.00;;;;;;5007832;28;20092;-64
2023/08/12 06:05:24;;;;;;;11.32;7.03;;;20.70;84.10;;;;;;5008711;28;20121;-64
2023/08/12 06:07:49;;;;;;;9.73;7.20;;;20.60;84.00;;;;;;5008861;28;20062;-64
2023/08/12 06:10:15;;;;;;;7.20;6.47;;;20.70;84.20;;;;;;5006177;28;20038;-64
2023/08/12 06:12:41;;;;;;;12.05;7.07;;;20.70;84.20;;;;;;5002300;28;20485;-64
2023/08/12 06:15:06;;;;;;;8.25;6.93;;;20.80;84.20;;;;;;5012857;28;20041;-65
2023/08/12 06:17:32;;;;;;;7.68;6.93;;;20.80;84.00;;;;;;5014014;28;20048;-64
2023/08/12 06:19:57;;;;;;;7.78;6.63;;;20.80;83.90;;;;;;5015290;28;20041;-64
2023/08/12 06:22:23;;;;;;;7.40;6.30;;;20.80;83.80;;;;;;5014691;28;20088;-64
2023/08/12 06:24:49;;;;;;;8.25;6.47;;;20.80;83.80;;;;;;5011424;28;20052;-64
2023/08/12 06:27:14;;;;;;;8.90;6.80;;;20.80;83.70;;;;;;4995700;28;20534;-64
2023/08/12 06:29:40;;;;;;;7.90;7.03;;;20.90;83.90;;;;;;5002500;28;20043;-64
2023/08/12 06:32:05;;;;;;;8.55;6.72;;;21.00;84.00;;;;;;4994897;28;20446;-64
2023/08/12 06:34:31;;;;;;;8.23;6.03;;;21.00;84.00;;;;;;4997802;28;20450;-64
2023/08/12 06:36:57;;;;;;;7.45;6.60;;;21.00;83.90;;;;;;5005820;28;20033;-64
2023/08/12 06:39:22;;;;;;;7.93;6.55;;;21.10;83.90;;;;;;5004102;28;20041;-64
2023/08/12 06:41:48;;;;;;;7.93;6.53;;;21.20;83.80;;;;;;4996579;28;20034;-64
2023/08/12 06:44:13;;;;;;;7.15;6.32;;;21.20;83.60;;;;;;5000242;28;20905;-65
2023/08/12 06:46:39;;;;;;;7.18;6.35;;;21.30;83.50;;;;;;4993105;28;22049;-65
2023/08/12 06:49:04;;;;;;;6.93;5.97;;;21.30;83.20;;;;;;5002340;28;20164;-64
2023/08/12 06:51:30;;;;;;;7.35;6.63;;;21.40;83.30;;;;;;5009389;28;20034;-64
2023/08/12 06:53:55;;;;;;;7.43;6.60;;;21.50;83.10;;;;;;5007738;28;20638;-64
2023/08/12 06:56:21;;;;;;;7.05;6.30;;;21.60;82.90;;;;;;5008212;28;20033;-64
2023/08/12 06:58:47;;;;;;;7.50;6.40;;;21.60;82.90;;;;;;5006529;28;20171;-64
2023/08/12 07:01:13;;;;;;;6.13;5.53;;;21.70;83.00;;;;;;5003646;28;20409;-64
2023/08/12 07:03:38;;;;;;;8.07;5.80;;;21.80;82.90;;;;;;5007453;28;20092;-64
2023/08/12 07:06:04;;;;;;;7.88;6.07;;;21.80;82.70;;;;;;5014424;28;20167;-64
2023/08/12 07:08:29;;;;;;;7.40;5.57;;;21.90;82.70;;;;;;5007855;28;20048;-64
2023/08/12 07:10:55;;;;;;;6.43;5.82;;;22.00;82.80;;;;;;4998946;28;20449;-64
2023/08/12 07:13:20;;;;;;;5.95;5.35;;;22.10;82.60;;;;;;5008540;28;20561;-64
2023/08/12 07:15:46;;;;;;;6.90;5.35;;;22.20;82.40;;;;;;5005718;28;20042;-64
2023/08/12 07:18:11;;;;;;;5.35;4.85;;;22.30;82.20;;;;;;5008344;28;20073;-64
2023/08/12 07:20:38;;;;;;;5.75;4.88;;;22.40;82.00;;;;;;5001947;28;20033;-62
2023/08/12 07:23:03;;;;;;;5.20;4.70;;;22.50;82.00;;;;;;4995843;28;20030;-63
2023/08/12 07:25:29;;;;;;;4.90;4.45;;;22.60;81.90;;;;;;5005852;28;20524;-62
2023/08/12 07:27:54;;;;;;;4.95;4.45;;;22.70;82.00;;;;;;5011554;28;20034;-63
2023/08/12 07:30:20;;;;;;;4.93;4.22;;;22.80;82.70;;;;;;5001438;28;20064;-64
2023/08/12 07:32:46;;;;;;;4.75;4.28;;;22.90;81.70;;;;;;5000859;28;20038;-62
2023/08/12 07:35:11;;;;;;;10.73;4.88;;;23.00;81.30;;;;;;4989556;28;20526;-64
2023/08/12 07:37:37;;;;;;;7.40;4.63;;;23.10;81.00;;;;;;5003782;28;20064;-63
2023/08/12 07:40:03;;;;;;;5.97;4.78;;;23.20;80.80;;;;;;5005074;28;20029;-64
2023/08/12 07:42:28;;;;;;;4.88;4.43;;;23.30;80.80;;;;;;4997787;28;20534;-63
2023/08/12 07:44:54;;;;;;;5.00;4.57;;;23.40;80.80;;;;;;5004062;28;20041;-64
2023/08/12 07:47:20;;;;;;;5.53;4.70;;;23.50;80.90;;;;;;5002822;28;20031;-62
2023/08/12 07:49:45;;;;;;;5.20;4.70;;;23.60;80.50;;;;;;4988770;28;20553;-62
2023/08/12 07:52:11;;;;;;;6.40;4.47;;;23.60;80.30;;;;;;5005499;28;20502;-63
2023/08/12 07:54:36;;;;;;;4.38;3.97;;;23.70;80.10;;;;;;5003226;28;20064;-62
2023/08/12 07:57:03;;;;;;;7.53;5.15;;;23.80;79.70;;;;;;5006933;28;20037;-61
2023/08/12 07:59:29;;;;;;;7.40;5.07;;;23.90;80.00;;;;;;5008030;28;20259;-64
2023/08/12 08:01:54;;;;;;;6.70;4.75;;;24.10;80.10;;;;;;5007262;28;20033;-64
2023/08/12 08:04:20;;;;;;;6.38;4.30;;;24.10;79.60;;;;;;5006364;28;20104;-61
2023/08/12 08:06:45;;;;;;;7.03;5.20;;;24.20;79.40;;;;;;5004070;28;20045;-64
2023/08/12 08:09:11;;;;;;;5.10;4.55;;;24.30;78.80;;;;;;5004127;28;20128;-63
2023/08/12 08:11:36;;;;;;;5.90;4.28;;;24.40;78.20;;;;;;4999014;28;20452;-64
2023/08/12 08:14:02;;;;;;;5.65;4.50;;;24.40;77.80;;;;;;5009293;28;20046;-63
2023/08/12 08:16:28;;;;;;;7.72;3.80;;;24.50;77.90;;;;;;5010494;28;20158;-62
2023/08/12 08:18:53;;;;;;;4.95;3.75;;;24.60;77.90;;;;;;5009293;28;20109;-64
2023/08/12 08:21:19;;;;;;;5.05;3.95;;;24.70;77.80;;;;;;5011100;28;20481;-64
2023/08/12 08:23:45;;;;;;;8.32;4.18;;;24.80;77.30;;;;;;5006905;28;20048;-64
2023/08/12 08:26:10;;;;;;;6.55;3.83;;;24.90;76.90;;;;;;5007696;28;20929;-64
2023/08/12 08:28:38;;;;;;;6.68;3.72;;;25.00;77.10;;;;;;5004327;28;20030;-64
2023/08/12 08:31:04;;;;;;;4.68;3.35;;;25.10;77.00;;;;;;5006405;28;20103;-63
2023/08/12 08:33:29;;;;;;;4.60;3.35;;;25.30;76.00;;;;;;5009093;28;20315;-62
2023/08/12 08:35:55;;;;;;;3.58;2.75;;;25.40;75.10;;;;;;5014459;28;20034;-64
2023/08/12 08:38:20;;;;;;;3.67;2.92;;;25.50;74.60;;;;;;5014342;28;20194;-64
2023/08/12 08:40:48;;;;;;;5.10;3.10;;;25.60;73.80;;;;;;5012715;28;20034;-64
2023/08/12 08:43:17;;;;;;;2.92;2.72;;;25.70;73.30;;;;;;5013792;28;20068;-64
2023/08/12 08:45:44;;;;;;;3.95;2.95;;;25.70;72.50;;;;;;5013786;28;20034;-65
2023/08/12 08:48:11;;;;;;;3.55;2.95;;;25.90;72.60;;;;;;5001108;28;20129;-63
2023/08/12 08:50:37;;;;;;;3.78;3.30;;;26.00;72.50;;;;;;5003145;28;20073;-64
2023/08/12 08:53:06;;;;;;;3.67;2.83;;;26.20;72.30;;;;;;5008914;28;20085;-64
2023/08/12 08:55:31;;;;;;;3.33;3.03;;;26.40;71.10;;;;;;4993736;28;20042;-64
2023/08/12 08:57:57;;;;;;;3.30;2.90;;;26.50;71.00;;;;;;5006220;28;20100;-64
2023/08/12 09:00:24;;;;;;;4.68;3.40;;;26.60;70.50;;;;;;5012904;28;20121;-64
2023/08/12 09:02:51;;;;;;;3.20;3.00;;;26.70;70.20;;;;;;5010116;28;20117;-64
2023/08/12 09:05:17;;;;;;;6.88;2.60;;;26.90;69.40;;;;;;5010558;28;20092;-65
2023/08/12 09:07:44;;;;;;;3.20;2.70;;;27.00;69.10;;;;;;5010734;28;20564;-64
2023/08/12 09:10:11;;;;;;;5.07;2.83;;;27.10;69.20;;;;;;5012392;28;20037;-64
2023/08/12 09:12:37;;;;;;;3.50;2.92;;;27.20;68.70;;;;;;5012208;28;20033;-64
2023/08/12 09:15:04;;;;;;;3.95;2.58;;;27.30;69.30;;;;;;5017502;28;20041;-64
2023/08/12 09:17:31;;;;;;;2.95;2.70;;;27.40;68.30;;;;;;5014759;28;20509;-64
2023/08/12 09:19:57;;;;;;;3.17;2.88;;;27.50;67.00;;;;;;5017096;28;20074;-64
2023/08/12 09:22:25;;;;;;;3.35;3.00;;;27.60;67.10;;;;;;5013244;28;20095;-63
2023/08/12 09:24:56;;;;;;;3.17;2.95;;;27.70;66.70;;;;;;5017724;28;20503;-64
2023/08/12 09:27:22;;;;;;;3.03;2.70;;;27.80;66.50;;;;;;5013400;28;20492;-64
2023/08/12 09:29:47;;;;;;;4.05;2.58;;;27.90;67.20;;;;;;5003942;28;20042;-64
2023/08/12 09:32:17;;;;;;;3.20;2.88;;;27.90;65.90;;;;;;5010137;28;20034;-64
2023/08/12 09:35:05;;;;;;;3.85;2.80;;;28.00;64.50;;;;;;5012861;28;20488;-64
2023/08/12 09:37:31;;;;;;;2.75;2.55;;;28.00;62.70;;;;;;5014783;28;20685;-65
2023/08/12 09:40:00;;;;;;;3.03;2.50;;;28.00;65.00;;;;;;5007681;28;20049;-65
2023/08/12 09:42:28;;;;;;;3.10;2.90;;;28.10;66.00;;;;;;5012743;28;20038;-65
2023/08/12 09:44:53;;;;;;;3.13;2.92;;;28.00;65.80;;;;;;5006990;28;20052;-61
2023/08/12 09:47:19;;;;;;;3.55;2.53;;;28.00;66.70;;;;;;5013057;28;20260;-62
2023/08/12 09:49:44;;;;;;;3.97;2.92;;;28.00;66.80;;;;;;5020204;28;20120;-62
2023/08/12 09:52:10;;;;;;;3.58;3.10;;;28.00;67.10;;;;;;5015178;28;20030;-62
2023/08/12 09:54:36;;;;;;;3.08;2.78;;;28.00;67.10;;;;;;5017877;28;20044;-62
2023/08/12 09:57:02;;;;;;;2.90;2.70;;;28.00;66.60;;;;;;5014904;28;20038;-61
2023/08/12 09:59:34;;;;;;;5.65;3.00;;;28.00;66.80;;;;;;5017859;28;20083;-63
2023/08/12 10:02:03;;;;;;;3.05;2.75;;;27.90;67.50;;;;;;5018653;28;20491;-62
2023/08/12 10:04:41;;;;;;;3.42;2.58;;;27.90;66.60;;;;;;5018211;28;20041;-61
2023/08/12 10:07:12;;;;;;;3.03;2.80;;;27.90;66.20;;;;;;5017760;28;20033;-62
2023/08/12 10:09:39;;;;;;;2.70;2.50;;;27.90;66.20;;;;;;5016695;28;20033;-63
2023/08/12 10:12:08;;;;;;;4.93;2.75;;;27.90;65.80;;;;;;5009370;28;20087;-62
2023/08/12 10:14:34;;;;;;;3.85;2.92;;;28.00;65.40;;;;;;5015127;28;20405;-62
2023/08/12 10:17:00;;;;;;;3.00;2.70;;;28.00;65.30;;;;;;5017461;28;20042;-62
2023/08/12 10:19:27;;;;;;;3.08;2.88;;;28.00;65.20;;;;;;5015794;28;20052;-63
2023/08/12 10:21:58;;;;;;;2.80;2.60;;;28.00;65.10;;;;;;5015439;28;20052;-63
2023/08/12 10:24:26;;;;;;;2.92;2.72;;;28.10;65.50;;;;;;5013655;28;20049;-62
2023/08/12 10:26:53;;;;;;;3.72;2.67;;;28.10;65.50;;;;;;5012992;28;20094;-62
2023/08/12 10:29:19;;;;;;;2.97;2.65;;;28.20;66.00;;;;;;4996958;28;20594;-63
2023/08/12 10:31:48;;;;;;;6.47;2.55;;;28.30;65.80;;;;;;4981640;28;20585;-64
2023/08/12 10:34:21;;;;;;;2.80;2.60;;;28.40;66.20;;;;;;5000808;28;20129;-62
2023/08/12 10:36:48;;;;;;;3.15;2.92;;;28.40;65.60;;;;;;5010938;28;20046;-60
2023/08/12 10:39:14;;;;;;;5.93;3.00;;;28.50;66.00;;;;;;5013274;28;20042;-63
2023/08/12 10:41:51;;;;;;;3.00;2.72;;;28.60;66.00;;;;;;5014693;28;20044;-63
2023/08/12 10:44:16;;;;;;;3.00;2.80;;;28.70;65.50;;;;;;5015726;28;20068;-63
2023/08/12 10:46:51;;;;;;;3.45;3.15;;;28.70;65.60;;;;;;5014523;28;20449;-63
2023/08/12 10:49:19;;;;;;;2.95;2.67;;;28.80;65.00;;;;;;5014206;28;20071;-63
2023/08/12 10:51:44;;;;;;;3.00;2.50;;;28.80;65.20;;;;;;5013052;28;20108;-63
2023/08/12 10:54:31;;;;;;;4.03;2.90;;;28.90;65.50;;;;;;5013342;28;20472;-62
2023/08/12 10:57:02;;;;;;;3.30;3.00;;;29.00;64.90;;;;;;5012826;28;20041;-62
2023/08/12 10:59:47;;;;;;;3.20;2.90;;;29.10;64.80;;;;;;5013137;28;20092;-63
2023/08/12 11:02:23;;;;;;;7.05;2.63;;;29.20;64.60;;;;;;5012445;28;20037;-63
2023/08/12 11:04:57;;;;;;;4.30;2.88;;;29.30;64.30;;;;;;5015798;28;20080;-62
2023/08/12 11:07:38;;;;;;;3.17;2.97;;;29.30;63.60;;;;;;5015154;28;20034;-63
2023/08/12 11:10:19;;;;;;;3.33;3.00;;;29.40;63.40;;;;;;5012669;28;20390;-63
2023/08/12 11:12:56;;;;;;;3.05;2.85;;;29.40;63.00;;;;;;5011248;28;20593;-64
2023/08/12 11:15:41;;;;;;;5.38;2.85;;;29.40;63.30;;;;;;5012974;28;20049;-63
2023/08/12 11:18:14;;;;;;;3.10;2.58;;;29.40;62.20;;;;;;5008903;28;20476;-64
2023/08/12 11:20:40;;;;;;;3.20;2.85;;;29.40;62.60;;;;;;5008265;28;20145;-63
2023/08/12 11:23:08;;;;;;;2.95;2.72;;;29.50;62.30;;;;;;5015417;28;20033;-64
2023/08/12 11:25:35;;;;;;;2.58;2.38;;;29.50;61.90;;;;;;5012685;28;20038;-63
2023/08/12 11:28:01;;;;;;;3.28;3.00;;;29.50;62.20;;;;;;5013073;28;20514;-63
2023/08/12 11:30:28;;;;;;;3.53;2.85;;;29.50;61.90;;;;;;5011594;28;20041;-64
2023/08/12 11:32:55;;;;;;;2.65;2.45;;;29.50;62.20;;;;;;5013638;28;20034;-64
2023/08/12 11:35:23;;;;;;;4.10;2.90;;;29.60;62.90;;;;;;5012110;28;20559;-63
2023/08/12 11:37:57;;;;;;;2.80;2.60;;;29.70;62.60;;;;;;5006584;28;20048;-63
2023/08/12 11:40:24;;;;;;;3.45;2.55;;;29.80;61.50;;;;;;5013598;28;20049;-64
2023/08/12 11:42:51;;;;;;;2.88;2.63;;;29.90;61.30;;;;;;5012285;28;20037;-63
2023/08/12 11:45:22;;;;;;;2.42;2.22;;;30.00;60.70;;;;;;5011577;28;20497;-63
2023/08/12 11:47:52;;;;;;;2.60;2.40;;;30.10;60.90;;;;;;5014375;28;20545;-64
2023/08/12 11:50:22;;;;;;;2.28;2.03;;;30.10;60.10;;;;;;5013514;28;20069;-63
2023/08/12 11:52:48;;;;;;;2.88;2.15;;;30.20;58.90;;;;;;5013393;28;20510;-64
2023/08/12 11:55:14;;;;;;;2.33;2.00;;;30.20;58.90;;;;;;5012798;28;20049;-64
2023/08/12 11:57:41;;;;;;;2.20;2.10;;;30.20;58.30;;;;;;5014446;28;20045;-63
2023/08/12 12:00:13;;;;;;;2.28;2.08;;;30.30;58.60;;;;;;5011928;28;20386;-63
2023/08/12 12:02:49;;;;;;;2.28;2.17;;;30.30;58.20;;;;;;5010673;28;20026;-63
2023/08/12 12:05:16;;;;;;;2.40;2.13;;;30.30;57.30;;;;;;5014068;28;20505;-63
2023/08/12 12:07:42;;;;;;;3.60;2.08;;;30.40;57.80;;;;;;5012533;28;20046;-63
2023/08/12 12:10:08;;;;;;;2.65;2.08;;;30.40;57.40;;;;;;5010314;28;20042;-63
2023/08/12 12:12:35;;;;;;;3.17;2.38;;;30.40;56.60;;;;;;5009364;28;20128;-63
2023/08/12 12:15:02;;;;;;;3.25;2.17;;;30.40;56.70;;;;;;5012534;28;21111;-63
2023/08/12 12:17:27;;;;;;;3.00;2.30;;;30.30;56.60;;;;;;5011509;28;20045;-63
2023/08/12 12:19:59;;;;;;;2.45;2.25;;;30.30;56.50;;;;;;5011178;28;20053;-64
2023/08/12 12:22:33;;;;;;;3.13;2.60;;;30.30;56.60;;;;;;5011647;28;20116;-64
2023/08/12 12:25:07;;;;;;;2.70;2.50;;;30.30;57.10;;;;;;5009659;28;20042;-63
2023/08/12 12:27:33;;;;;;;2.75;2.53;;;30.30;56.60;;;;;;5011663;28;20037;-63
2023/08/12 12:29:59;;;;;;;2.95;2.38;;;30.30;57.30;;;;;;5010674;28;20030;-64
2023/08/12 12:32:24;;;;;;;2.80;2.25;;;30.30;56.50;;;;;;5006461;28;20086;-64
2023/08/12 12:34:50;;;;;;;2.85;2.40;;;30.30;56.50;;;;;;5011652;28;20049;-63
2023/08/12 12:37:16;;;;;;;3.22;2.58;;;30.30;56.50;;;;;;5012548;28;20497;-63
2023/08/12 12:39:42;;;;;;;2.53;2.33;;;30.30;56.60;;;;;;5014105;28;20034;-63
2023/08/12 12:42:08;;;;;;;5.03;2.15;;;30.30;55.90;;;;;;5011586;28;20034;-64
2023/08/12 12:44:33;;;;;;;3.25;2.47;;;30.40;55.50;;;;;;5008706;28;20042;-63